sensor_id;sensor_type;location;lat;lon;timestamp;P1;P2;P0
12246;PMS7003;6186;52.022;4.692;2024-01-10T00:00:46;4.00;3.00;0.00
12246;PMS7003;6186;52.022;4.692;2024-01-10T00:03:12;5.33;3.67;0.67
12246;PMS7003;6186;52.022;4.692;2024-01-10T00:05:37;4.67;4.00;1.00
12246;PMS7003;6186;52.022;4.692;2024-01-10T00:08:02;3.00;1.67;0.00
12246;PMS7003;6186;52.022;4.692;2024-01-10T00:10:27;3.00;3.00;0.00
12246;PMS7003;6186;52.022;4.692;2024-01-10T00:12:52;3.33;3.33;1.00
12246;PMS7003;6186;52.022;4.692;2024-01-10T00:15:18;5.00;4.33;1.00
12246;PMS7003;6186;52.022;4.692;2024-01-10T00:17:43;4.00;3.00;0.00
12246;PMS7003;6186;52.022;4.692;2024-01-10T00:20:08;3.67;3.67;1.00
12246;PMS7003;6186;52.022;4.692;2024-01-10T00:22:33;4.00;3.33;0.00
12246;PMS7003;6186;52.022;4.692;2024-01-10T00:24:59;3.00;3.00;0.00
12246;PMS7003;6186;52.022;4.692;2024-01-10T00:27:24;3.00;3.00;1.00
12246;PMS7003;6186;52.022;4.692;2024-01-10T00:29:49;4.00;3.00;1.00
12246;PMS7003;6186;52.022;4.692;2024-01-10T00:32:14;3.67;3.67;1.00
12246;PMS7003;6186;52.022;4.692;2024-01-10T00:34:40;5.33;4.00;1.00
12246;PMS7003;6186;52.022;4.692;2024-01-10T00:37:05;3.00;3.00;1.00
12246;PMS7003;6186;52.022;4.692;2024-01-10T00:39:30;4.00;3.00;0.00
12246;PMS7003;6186;52.022;4.692;2024-01-10T00:41:55;3.67;3.67;1.00
12246;PMS7003;6186;52.022;4.692;2024-01-10T00:44:21;3.33;3.33;1.00
12246;PMS7003;6186;52.022;4.692;2024-01-10T00:46:46;4.00;3.67;0.00
12246;PMS7003;6186;52.022;4.692;2024-01-10T00:49:11;3.00;3.00;0.00
12246;PMS7003;6186;52.022;4.692;2024-01-10T00:51:36;4.67;4.00;0.33
12246;PMS7003;6186;52.022;4.692;2024-01-10T00:54:01;3.00;3.00;1.00
12246;PMS7003;6186;52.022;4.692;2024-01-10T00:56:27;4.00;4.00;1.00
12246;PMS7003;6186;52.022;4.692;2024-01-10T00:58:52;6.33;5.33;0.67
12246;PMS7003;6186;52.022;4.692;2024-01-10T01:01:17;4.00;3.00;0.00
12246;PMS7003;6186;52.022;4.692;2024-01-10T01:03:42;4.00;3.00;1.00
12246;PMS7003;6186;52.022;4.692;2024-01-10T01:06:07;3.00;3.00;1.00
12246;PMS7003;6186;52.022;4.692;2024-01-10T01:08:33;3.33;3.33;1.00
12246;PMS7003;6186;52.022;4.692;2024-01-10T01:10:58;4.00;4.00;1.00
12246;PMS7003;6186;52.022;4.692;2024-01-10T01:13:23;3.33;3.00;1.00
12246;PMS7003;6186;52.022;4.692;2024-01-10T01:15:48;3.67;3.00;1.00
12246;PMS7003;6186;52.022;4.692;2024-01-10T01:18:14;6.00;4.67;1.00
12246;PMS7003;6186;52.022;4.692;2024-01-10T01:20:39;4.67;3.33;1.00
12246;PMS7003;6186;52.022;4.692;2024-01-10T01:23:04;3.33;3.00;1.00
12246;PMS7003;6186;52.022;4.692;2024-01-10T01:25:29;3.33;3.33;1.00
12246;PMS7003;6186;52.022;4.692;2024-01-10T01:27:54;4.00;3.67;0.33
12246;PMS7003;6186;52.022;4.692;2024-01-10T01:30:20;4.00;4.00;0.00
12246;PMS7003;6186;52.022;4.692;2024-01-10T01:32:45;6.00;4.00;1.00
12246;PMS7003;6186;52.022;4.692;2024-01-10T01:35:10;3.00;3.00;0.00
12246;PMS7003;6186;52.022;4.692;2024-01-10T01:37:35;4.00;4.00;1.00
12246;PMS7003;6186;52.022;4.692;2024-01-10T01:40:00;4.00;3.00;1.00
12246;PMS7003;6186;52.022;4.692;2024-01-10T01:42:26;3.33;3.33;1.00
12246;PMS7003;6186;52.022;4.692;2024-01-10T01:44:51;3.67;3.67;0.67
12246;PMS7003;6186;52.022;4.692;2024-01-10T01:47:16;6.00;4.67;1.00
12246;PMS7003;6186;52.022;4.692;2024-01-10T01:49:42;5.33;4.00;1.00
12246;PMS7003;6186;52.022;4.692;2024-01-10T01:52:07;4.00;4.00;1.00
12246;PMS7003;6186;52.022;4.692;2024-01-10T01:54:32;3.33;3.33;0.33
12246;PMS7003;6186;52.022;4.692;2024-01-10T01:56:58;4.00;4.00;1.00
12246;PMS7003;6186;52.022;4.692;2024-01-10T01:59:23;4.00;3.33;0.00
12246;PMS7003;6186;52.022;4.692;2024-01-10T02:01:49;3.00;3.00;0.75
12246;PMS7003;6186;52.022;4.692;2024-01-10T02:04:17;3.75;3.00;0.75
12246;PMS7003;6186;52.022;4.692;2024-01-10T02:06:43;4.67;4.00;1.00
12246;PMS7003;6186;52.022;4.692;2024-01-10T02:09:08;3.67;3.67;1.00
12246;PMS7003;6186;52.022;4.692;2024-01-10T02:11:33;4.00;4.00;1.00
12246;PMS7003;6186;52.022;4.692;2024-01-10T02:13:59;3.00;3.00;1.00
12246;PMS7003;6186;52.022;4.692;2024-01-10T02:16:24;6.00;4.00;2.33
12246;PMS7003;6186;52.022;4.692;2024-01-10T02:18:50;4.00;4.00;1.00
12246;PMS7003;6186;52.022;4.692;2024-01-10T02:21:15;3.00;3.00;1.00
12246;PMS7003;6186;52.022;4.692;2024-01-10T02:23:40;3.00;3.00;0.33
12246;PMS7003;6186;52.022;4.692;2024-01-10T02:26:06;6.00;4.67;1.00
12246;PMS7003;6186;52.022;4.692;2024-01-10T02:28:31;5.33;4.67;1.00
12246;PMS7003;6186;52.022;4.692;2024-01-10T02:30:56;4.00;3.00;1.00
12246;PMS7003;6186;52.022;4.692;2024-01-10T02:33:22;6.75;4.50;1.00
12246;PMS7003;6186;52.022;4.692;2024-01-10T02:35:47;4.00;4.00;1.00
12246;PMS7003;6186;52.022;4.692;2024-01-10T02:38:12;3.00;3.00;1.00
12246;PMS7003;6186;52.022;4.692;2024-01-10T02:40:38;3.67;3.67;0.67
12246;PMS7003;6186;52.022;4.692;2024-01-10T02:43:03;4.00;4.00;1.00
12246;PMS7003;6186;52.022;4.692;2024-01-10T02:45:28;6.67;6.00;1.00
12246;PMS7003;6186;52.022;4.692;2024-01-10T02:47:54;3.33;3.00;1.00
12246;PMS7003;6186;52.022;4.692;2024-01-10T02:50:19;4.67;4.00;1.00
12246;PMS7003;6186;52.022;4.692;2024-01-10T02:52:44;4.67;4.00;1.00
12246;PMS7003;6186;52.022;4.692;2024-01-10T02:55:10;6.67;6.00;3.00
12246;PMS7003;6186;52.022;4.692;2024-01-10T02:57:35;6.00;6.00;1.00
12246;PMS7003;6186;52.022;4.692;2024-01-10T03:00:00;3.33;3.33;1.00
12246;PMS7003;6186;52.022;4.692;2024-01-10T03:02:26;4.00;4.00;1.00
12246;PMS7003;6186;52.022;4.692;2024-01-10T03:04:51;4.00;4.00;1.00
12246;PMS7003;6186;52.022;4.692;2024-01-10T03:07:16;3.67;3.67;1.00
12246;PMS7003;6186;52.022;4.692;2024-01-10T03:09:41;4.00;4.00;1.00
12246;PMS7003;6186;52.022;4.692;2024-01-10T03:12:06;4.00;3.00;1.00
12246;PMS7003;6186;52.022;4.692;2024-01-10T03:14:32;4.00;4.00;1.67
12246;PMS7003;6186;52.022;4.692;2024-01-10T03:16:58;4.00;4.00;1.00
12246;PMS7003;6186;52.022;4.692;2024-01-10T03:19:23;4.67;4.00;0.67
12246;PMS7003;6186;52.022;4.692;2024-01-10T03:21:48;6.00;4.00;1.00
12246;PMS7003;6186;52.022;4.692;2024-01-10T03:24:14;4.00;4.00;1.67
12246;PMS7003;6186;52.022;4.692;2024-01-10T03:26:39;4.00;4.00;1.00
12246;PMS7003;6186;52.022;4.692;2024-01-10T03:29:04;6.00;5.33;1.00
12246;PMS7003;6186;52.022;4.692;2024-01-10T03:31:29;4.00;4.00;1.00
12246;PMS7003;6186;52.022;4.692;2024-01-10T03:33:55;6.33;6.00;2.33
12246;PMS7003;6186;52.022;4.692;2024-01-10T03:36:21;6.00;6.00;2.00
12246;PMS7003;6186;52.022;4.692;2024-01-10T03:38:46;6.00;4.67;1.00
12246;PMS7003;6186;52.022;4.692;2024-01-10T03:41:14;7.67;6.33;1.00
12246;PMS7003;6186;52.022;4.692;2024-01-10T03:43:43;4.00;4.00;1.00
12246;PMS7003;6186;52.022;4.692;2024-01-10T03:46:09;5.50;5.50;2.00
12246;PMS7003;6186;52.022;4.692;2024-01-10T03:48:35;7.00;6.00;1.50
12246;PMS7003;6186;52.022;4.692;2024-01-10T03:51:01;4.00;4.00;1.00
12246;PMS7003;6186;52.022;4.692;2024-01-10T03:53:26;10.00;7.00;3.00
12246;PMS7003;6186;52.022;4.692;2024-01-10T03:55:52;6.00;6.00;3.00
12246;PMS7003;6186;52.022;4.692;2024-01-10T03:58:17;6.33;6.33;3.00
12246;PMS7003;6186;52.022;4.692;2024-01-10T04:00:42;6.00;4.67;1.00
12246;PMS7003;6186;52.022;4.692;2024-01-10T04:03:07;4.67;4.00;1.00
12246;PMS7003;6186;52.022;4.692;2024-01-10T04:05:33;5.33;4.67;1.67
12246;PMS7003;6186;52.022;4.692;2024-01-10T04:07:58;7.00;7.00;3.00
12246;PMS7003;6186;52.022;4.692;2024-01-10T04:10:23;8.33;6.33;2.33
12246;PMS7003;6186;52.022;4.692;2024-01-10T04:12:49;6.00;6.00;1.67
12246;PMS7003;6186;52.022;4.692;2024-01-10T04:15:14;4.00;3.25;1.00
12246;PMS7003;6186;52.022;4.692;2024-01-10T04:17:40;5.33;4.67;1.00
12246;PMS7003;6186;52.022;4.692;2024-01-10T04:20:05;4.00;4.00;3.00
12246;PMS7003;6186;52.022;4.692;2024-01-10T04:22:31;4.00;4.00;1.00
12246;PMS7003;6186;52.022;4.692;2024-01-10T04:24:57;6.00;4.67;1.00
12246;PMS7003;6186;52.022;4.692;2024-01-10T04:27:23;10.00;6.25;1.00
12246;PMS7003;6186;52.022;4.692;2024-01-10T04:29:48;6.00;5.33;1.00
12246;PMS7003;6186;52.022;4.692;2024-01-10T04:32:13;4.00;4.00;1.00
12246;PMS7003;6186;52.022;4.692;2024-01-10T04:34:39;4.67;4.67;1.67
12246;PMS7003;6186;52.022;4.692;2024-01-10T04:37:04;6.67;6.00;3.00
12246;PMS7003;6186;52.022;4.692;2024-01-10T04:39:29;6.33;6.00;3.00
12246;PMS7003;6186;52.022;4.692;2024-01-10T04:41:54;3.00;3.00;1.00
12246;PMS7003;6186;52.022;4.692;2024-01-10T04:44:20;6.67;4.00;1.00
12246;PMS7003;6186;52.022;4.692;2024-01-10T04:46:45;4.00;4.00;1.00
12246;PMS7003;6186;52.022;4.692;2024-01-10T04:49:10;6.00;6.00;1.67
12246;PMS7003;6186;52.022;4.692;2024-01-10T04:51:35;7.67;7.00;3.00
12246;PMS7003;6186;52.022;4.692;2024-01-10T04:54:01;4.00;4.00;1.00
12246;PMS7003;6186;52.022;4.692;2024-01-10T04:56:26;6.67;6.00;2.33
12246;PMS7003;6186;52.022;4.692;2024-01-10T04:58:51;4.67;4.67;1.00
12246;PMS7003;6186;52.022;4.692;2024-01-10T05:01:17;4.67;4.00;1.00
12246;PMS7003;6186;52.022;4.692;2024-01-10T05:03:42;6.25;5.00;1.00
12246;PMS7003;6186;52.022;4.692;2024-01-10T05:06:08;4.00;4.00;1.00
12246;PMS7003;6186;52.022;4.692;2024-01-10T05:08:33;7.33;4.67;1.67
12246;PMS7003;6186;52.022;4.692;2024-01-10T05:10:58;6.00;6.00;1.00
12246;PMS7003;6186;52.022;4.692;2024-01-10T05:13:24;5.33;4.00;1.00
12246;PMS7003;6186;52.022;4.692;2024-01-10T05:15:49;7.67;5.33;1.00
12246;PMS7003;6186;52.022;4.692;2024-01-10T05:18:15;4.67;4.67;1.00
12246;PMS7003;6186;52.022;4.692;2024-01-10T05:20:40;6.75;6.00;3.00
12246;PMS7003;6186;52.022;4.692;2024-01-10T05:23:06;6.00;4.00;1.00
12246;PMS7003;6186;52.022;4.692;2024-01-10T05:25:31;5.33;5.33;1.00
12246;PMS7003;6186;52.022;4.692;2024-01-10T05:27:56;4.67;4.67;1.00
12246;PMS7003;6186;52.022;4.692;2024-01-10T05:30:21;4.00;4.00;1.67
12246;PMS7003;6186;52.022;4.692;2024-01-10T05:32:46;6.67;6.00;3.00
12246;PMS7003;6186;52.022;4.692;2024-01-10T05:35:12;4.67;4.00;1.00
12246;PMS7003;6186;52.022;4.692;2024-01-10T05:37:37;7.67;6.00;3.00
12246;PMS7003;6186;52.022;4.692;2024-01-10T05:40:03;5.33;5.33;1.00
12246;PMS7003;6186;52.022;4.692;2024-01-10T05:42:28;5.00;4.00;1.00
12246;PMS7003;6186;52.022;4.692;2024-01-10T05:44:54;6.00;5.67;1.00
12246;PMS7003;6186;52.022;4.692;2024-01-10T05:47:19;4.67;4.67;1.67
12246;PMS7003;6186;52.022;4.692;2024-01-10T05:49:44;4.00;4.00;1.00
12246;PMS7003;6186;52.022;4.692;2024-01-10T05:52:09;6.33;6.33;1.67
12246;PMS7003;6186;52.022;4.692;2024-01-10T05:54:35;5.33;5.33;1.67
12246;PMS7003;6186;52.022;4.692;2024-01-10T05:57:00;6.00;4.67;1.00
12246;PMS7003;6186;52.022;4.692;2024-01-10T05:59:25;7.33;6.67;3.00
12246;PMS7003;6186;52.022;4.692;2024-01-10T06:01:50;6.00;6.00;3.00
12246;PMS7003;6186;52.022;4.692;2024-01-10T06:04:15;6.00;6.00;1.00
12246;PMS7003;6186;52.022;4.692;2024-01-10T06:06:41;4.67;4.00;1.67
12246;PMS7003;6186;52.022;4.692;2024-01-10T06:09:06;6.33;6.00;1.67
12246;PMS7003;6186;52.022;4.692;2024-01-10T06:11:31;7.67;6.00;3.00
12246;PMS7003;6186;52.022;4.692;2024-01-10T06:13:56;6.00;6.00;3.00
12246;PMS7003;6186;52.022;4.692;2024-01-10T06:16:21;9.00;7.00;3.00
12246;PMS7003;6186;52.022;4.692;2024-01-10T06:18:47;6.33;6.00;3.00
12246;PMS7003;6186;52.022;4.692;2024-01-10T06:21:12;9.00;7.67;3.00
12246;PMS7003;6186;52.022;4.692;2024-01-10T06:23:37;6.00;6.00;1.67
12246;PMS7003;6186;52.022;4.692;2024-01-10T06:26:02;7.67;7.00;3.00
12246;PMS7003;6186;52.022;4.692;2024-01-10T06:28:28;8.33;6.67;3.00
12246;PMS7003;6186;52.022;4.692;2024-01-10T06:30:53;4.00;4.00;1.67
12246;PMS7003;6186;52.022;4.692;2024-01-10T06:33:18;8.33;7.00;1.67
12246;PMS7003;6186;52.022;4.692;2024-01-10T06:35:43;5.33;4.00;1.00
12246;PMS7003;6186;52.022;4.692;2024-01-10T06:38:09;6.67;6.00;1.00
12246;PMS7003;6186;52.022;4.692;2024-01-10T06:40:34;5.33;5.33;2.33
12246;PMS7003;6186;52.022;4.692;2024-01-10T06:43:00;6.67;6.67;3.00
12246;PMS7003;6186;52.022;4.692;2024-01-10T06:45:26;6.00;6.00;3.00
12246;PMS7003;6186;52.022;4.692;2024-01-10T06:47:51;6.00;6.00;1.50
12246;PMS7003;6186;52.022;4.692;2024-01-10T06:50:16;4.00;4.00;1.00
12246;PMS7003;6186;52.022;4.692;2024-01-10T06:52:41;5.33;5.33;1.00
12246;PMS7003;6186;52.022;4.692;2024-01-10T06:55:07;7.00;6.00;3.00
12246;PMS7003;6186;52.022;4.692;2024-01-10T06:57:32;6.00;6.00;3.00
12246;PMS7003;6186;52.022;4.692;2024-01-10T06:59:58;9.33;7.67;3.00
12246;PMS7003;6186;52.022;4.692;2024-01-10T07:02:23;7.67;6.67;3.00
12246;PMS7003;6186;52.022;4.692;2024-01-10T07:04:48;7.00;6.00;3.00
12246;PMS7003;6186;52.022;4.692;2024-01-10T07:07:14;6.00;5.33;2.33
12246;PMS7003;6186;52.022;4.692;2024-01-10T07:09:39;7.00;7.00;4.00
12246;PMS7003;6186;52.022;4.692;2024-01-10T07:12:04;6.00;6.00;3.00
12246;PMS7003;6186;52.022;4.692;2024-01-10T07:14:30;6.33;6.33;3.00
12246;PMS7003;6186;52.022;4.692;2024-01-10T07:16:55;4.00;4.00;1.00
12246;PMS7003;6186;52.022;4.692;2024-01-10T07:19:20;6.00;4.67;3.00
12246;PMS7003;6186;52.022;4.692;2024-01-10T07:21:46;7.67;7.00;3.00
12246;PMS7003;6186;52.022;4.692;2024-01-10T07:24:11;7.00;6.00;3.00
12246;PMS7003;6186;52.022;4.692;2024-01-10T07:26:36;4.67;4.67;2.33
12246;PMS7003;6186;52.022;4.692;2024-01-10T07:29:02;4.00;4.00;1.00
12246;PMS7003;6186;52.022;4.692;2024-01-10T07:31:27;6.00;4.00;1.00
12246;PMS7003;6186;52.022;4.692;2024-01-10T07:33:56;7.00;6.00;1.00
12246;PMS7003;6186;52.022;4.692;2024-01-10T07:36:21;7.00;5.50;1.00
12246;PMS7003;6186;52.022;4.692;2024-01-10T07:38:46;7.00;7.00;1.67
12246;PMS7003;6186;52.022;4.692;2024-01-10T07:41:11;6.33;6.00;1.00
12246;PMS7003;6186;52.022;4.692;2024-01-10T07:43:37;7.00;6.00;1.00
12246;PMS7003;6186;52.022;4.692;2024-01-10T07:46:02;6.67;6.00;1.00
12246;PMS7003;6186;52.022;4.692;2024-01-10T07:48:27;4.00;4.00;1.67
12246;PMS7003;6186;52.022;4.692;2024-01-10T07:50:52;6.00;6.00;1.00
12246;PMS7003;6186;52.022;4.692;2024-01-10T07:53:17;4.00;4.00;1.00
12246;PMS7003;6186;52.022;4.692;2024-01-10T07:55:43;6.00;6.00;1.00
12246;PMS7003;6186;52.022;4.692;2024-01-10T07:58:08;6.00;6.00;3.00
12246;PMS7003;6186;52.022;4.692;2024-01-10T08:00:33;7.00;6.00;2.33
12246;PMS7003;6186;52.022;4.692;2024-01-10T08:02:58;6.33;6.00;2.33
12246;PMS7003;6186;52.022;4.692;2024-01-10T08:05:24;7.00;7.00;3.00
12246;PMS7003;6186;52.022;4.692;2024-01-10T08:07:49;7.00;7.00;3.00
12246;PMS7003;6186;52.022;4.692;2024-01-10T08:10:14;5.33;4.00;1.00
12246;PMS7003;6186;52.022;4.692;2024-01-10T08:12:39;6.00;6.00;1.00
12246;PMS7003;6186;52.022;4.692;2024-01-10T08:15:05;6.67;6.00;3.00
12246;PMS7003;6186;52.022;4.692;2024-01-10T08:17:30;5.00;5.00;2.50
12246;PMS7003;6186;52.022;4.692;2024-01-10T08:19:56;6.67;5.33;2.33
12246;PMS7003;6186;52.022;4.692;2024-01-10T08:22:21;7.67;6.00;3.00
12246;PMS7003;6186;52.022;4.692;2024-01-10T08:24:46;7.67;6.00;3.00
12246;PMS7003;6186;52.022;4.692;2024-01-10T08:27:12;7.00;7.00;3.00
12246;PMS7003;6186;52.022;4.692;2024-01-10T08:29:37;7.00;6.00;3.00
12246;PMS7003;6186;52.022;4.692;2024-01-10T08:32:02;7.00;6.00;3.00
12246;PMS7003;6186;52.022;4.692;2024-01-10T08:34:28;6.00;6.00;1.67
12246;PMS7003;6186;52.022;4.692;2024-01-10T08:36:53;7.00;6.00;2.33
12246;PMS7003;6186;52.022;4.692;2024-01-10T08:39:18;9.00;7.00;3.00
12246;PMS7003;6186;52.022;4.692;2024-01-10T08:41:44;7.00;7.00;3.00
12246;PMS7003;6186;52.022;4.692;2024-01-10T08:44:12;6.00;6.00;3.00
12246;PMS7003;6186;52.022;4.692;2024-01-10T08:46:37;5.50;5.50;1.50
12246;PMS7003;6186;52.022;4.692;2024-01-10T08:49:03;7.00;6.00;3.00
12246;PMS7003;6186;52.022;4.692;2024-01-10T08:51:28;6.00;6.00;3.00
12246;PMS7003;6186;52.022;4.692;2024-01-10T08:53:53;6.00;4.00;1.00
12246;PMS7003;6186;52.022;4.692;2024-01-10T08:56:18;5.67;5.67;1.67
12246;PMS7003;6186;52.022;4.692;2024-01-10T08:58:43;6.00;6.00;1.00
12246;PMS7003;6186;52.022;4.692;2024-01-10T09:01:09;6.33;6.00;3.00
12246;PMS7003;6186;52.022;4.692;2024-01-10T09:03:34;8.33;7.00;3.00
12246;PMS7003;6186;52.022;4.692;2024-01-10T09:05:59;9.00;7.00;3.00
12246;PMS7003;6186;52.022;4.692;2024-01-10T09:08:24;6.00;6.00;3.00
12246;PMS7003;6186;52.022;4.692;2024-01-10T09:10:50;6.33;6.33;3.00
12246;PMS7003;6186;52.022;4.692;2024-01-10T09:13:15;7.00;6.67;3.00
12246;PMS7003;6186;52.022;4.692;2024-01-10T09:15:40;6.00;6.00;2.33
12246;PMS7003;6186;52.022;4.692;2024-01-10T09:18:06;6.67;6.00;3.00
12246;PMS7003;6186;52.022;4.692;2024-01-10T09:20:31;4.67;4.00;1.00
12246;PMS7003;6186;52.022;4.692;2024-01-10T09:22:56;7.00;6.33;2.33
12246;PMS7003;6186;52.022;4.692;2024-01-10T09:25:21;6.00;6.00;1.00
12246;PMS7003;6186;52.022;4.692;2024-01-10T09:27:47;7.00;6.00;3.00
12246;PMS7003;6186;52.022;4.692;2024-01-10T09:30:12;6.00;4.67;1.00
12246;PMS7003;6186;52.022;4.692;2024-01-10T09:32:38;7.00;6.00;3.00
12246;PMS7003;6186;52.022;4.692;2024-01-10T09:35:04;6.00;6.00;3.00
12246;PMS7003;6186;52.022;4.692;2024-01-10T09:37:29;7.00;6.00;3.00
12246;PMS7003;6186;52.022;4.692;2024-01-10T09:39:54;6.33;6.00;3.00
12246;PMS7003;6186;52.022;4.692;2024-01-10T09:42:20;10.00;8.33;3.00
12246;PMS7003;6186;52.022;4.692;2024-01-10T09:44:45;9.00;7.00;3.00
12246;PMS7003;6186;52.022;4.692;2024-01-10T09:47:12;6.75;6.50;3.00
12246;PMS7003;6186;52.022;4.692;2024-01-10T09:49:39;8.50;7.50;3.50
12246;PMS7003;6186;52.022;4.692;2024-01-10T09:52:05;7.33;7.00;4.00
12246;PMS7003;6186;52.022;4.692;2024-01-10T09:54:35;7.00;7.00;2.50
12246;PMS7003;6186;52.022;4.692;2024-01-10T09:57:03;5.00;5.00;2.00
12246;PMS7003;6186;52.022;4.692;2024-01-10T09:59:28;7.00;6.67;3.00
12246;PMS7003;6186;52.022;4.692;2024-01-10T10:01:53;6.00;5.33;2.33
12246;PMS7003;6186;52.022;4.692;2024-01-10T10:04:21;9.75;7.00;3.00
12246;PMS7003;6186;52.022;4.692;2024-01-10T10:06:47;7.67;7.00;2.33
12246;PMS7003;6186;52.022;4.692;2024-01-10T10:09:12;6.33;6.00;3.00
12246;PMS7003;6186;52.022;4.692;2024-01-10T10:11:37;7.00;6.33;3.00
12246;PMS7003;6186;52.022;4.692;2024-01-10T10:14:15;7.00;7.00;3.00
12246;PMS7003;6186;52.022;4.692;2024-01-10T10:16:42;4.75;4.75;2.50
12246;PMS7003;6186;52.022;4.692;2024-01-10T10:19:08;7.67;5.00;2.00
12246;PMS7003;6186;52.022;4.692;2024-01-10T10:21:33;8.67;8.00;3.00
12246;PMS7003;6186;52.022;4.692;2024-01-10T10:23:59;8.00;5.33;2.33
12246;PMS7003;6186;52.022;4.692;2024-01-10T10:26:26;6.50;5.50;2.50
12246;PMS7003;6186;52.022;4.692;2024-01-10T10:28:52;8.00;7.00;4.00
12246;PMS7003;6186;52.022;4.692;2024-01-10T10:31:18;7.00;6.33;2.00
12246;PMS7003;6186;52.022;4.692;2024-01-10T10:33:44;7.50;7.00;3.00
12246;PMS7003;6186;52.022;4.692;2024-01-10T10:36:10;8.00;7.75;4.00
12246;PMS7003;6186;52.022;4.692;2024-01-10T10:38:36;5.00;5.00;2.00
12246;PMS7003;6186;52.022;4.692;2024-01-10T10:41:01;9.33;8.00;4.00
12246;PMS7003;6186;52.022;4.692;2024-01-10T10:43:30;5.50;5.50;2.00
12246;PMS7003;6186;52.022;4.692;2024-01-10T10:45:59;13.50;9.00;4.00
12246;PMS7003;6186;52.022;4.692;2024-01-10T10:48:26;10.25;9.25;4.75
12246;PMS7003;6186;52.022;4.692;2024-01-10T10:50:59;8.00;8.00;2.00
12246;PMS7003;6186;52.022;4.692;2024-01-10T10:53:28;9.50;8.75;2.00
12246;PMS7003;6186;52.022;4.692;2024-01-10T10:55:55;9.25;7.50;4.00
12246;PMS7003;6186;52.022;4.692;2024-01-10T10:58:22;10.00;8.00;3.50
12246;PMS7003;6186;52.022;4.692;2024-01-10T11:00:47;8.00;7.67;3.33
12246;PMS7003;6186;52.022;4.692;2024-01-10T11:03:12;7.00;7.00;4.00
12246;PMS7003;6186;52.022;4.692;2024-01-10T11:05:40;8.75;8.00;4.00
12246;PMS7003;6186;52.022;4.692;2024-01-10T11:08:05;8.25;8.00;4.00
12246;PMS7003;6186;52.022;4.692;2024-01-10T11:10:36;8.60;8.40;4.00
12246;PMS7003;6186;52.022;4.692;2024-01-10T11:24:13;8.60;7.80;5.00
12246;PMS7003;6186;52.022;4.692;2024-01-10T11:26:39;10.25;10.00;4.75
12246;PMS7003;6186;52.022;4.692;2024-01-10T11:29:06;10.60;9.60;5.00
12246;PMS7003;6186;52.022;4.692;2024-01-10T11:31:31;13.00;10.50;4.25
12246;PMS7003;6186;52.022;4.692;2024-01-10T11:33:57;10.40;8.60;5.00
12246;PMS7003;6186;52.022;4.692;2024-01-10T11:36:24;10.00;9.20;5.00
12246;PMS7003;6186;52.022;4.692;2024-01-10T11:41:21;8.80;8.00;4.00
12246;PMS7003;6186;52.022;4.692;2024-01-10T11:47:08;8.75;8.75;5.00
12246;PMS7003;6186;52.022;4.692;2024-01-10T11:49:28;12.25;9.75;4.00
12246;PMS7003;6186;52.022;4.692;2024-01-10T11:51:54;9.00;9.00;3.33
12246;PMS7003;6186;52.022;4.692;2024-01-10T11:57:12;9.00;9.00;5.00
12246;PMS7003;6186;52.022;4.692;2024-01-10T11:59:40;7.20;7.20;3.20
12246;PMS7003;6186;52.022;4.692;2024-01-10T12:02:07;9.80;8.60;3.40
12246;PMS7003;6186;52.022;4.692;2024-01-10T12:04:32;6.50;6.00;3.00
12246;PMS7003;6186;52.022;4.692;2024-01-10T12:06:57;7.50;7.50;4.50
12246;PMS7003;6186;52.022;4.692;2024-01-10T12:09:23;10.00;8.00;3.00
12246;PMS7003;6186;52.022;4.692;2024-01-10T12:11:48;8.60;8.40;3.20
12246;PMS7003;6186;52.022;4.692;2024-01-10T12:14:14;8.25;7.00;3.00
12246;PMS7003;6186;52.022;4.692;2024-01-10T12:16:39;6.75;6.75;3.00
12246;PMS7003;6186;52.022;4.692;2024-01-10T12:19:04;7.50;7.00;3.00
12246;PMS7003;6186;52.022;4.692;2024-01-10T12:21:30;8.75;8.00;4.00
12246;PMS7003;6186;52.022;4.692;2024-01-10T12:23:55;9.75;8.00;3.75
12246;PMS7003;6186;52.022;4.692;2024-01-10T12:26:20;11.50;8.00;3.00
12246;PMS7003;6186;52.022;4.692;2024-01-10T12:28:58;9.00;8.50;4.75
12246;PMS7003;6186;52.022;4.692;2024-01-10T12:31:27;10.00;8.80;5.00
12246;PMS7003;6186;52.022;4.692;2024-01-10T12:33:56;9.40;8.00;4.00
12246;PMS7003;6186;52.022;4.692;2024-01-10T12:36:22;10.00;9.00;4.00
12246;PMS7003;6186;52.022;4.692;2024-01-10T12:38:47;9.00;8.00;4.00
12246;PMS7003;6186;52.022;4.692;2024-01-10T12:41:16;9.00;9.00;4.00
12246;PMS7003;6186;52.022;4.692;2024-01-10T12:43:43;10.20;9.60;4.20
12246;PMS7003;6186;52.022;4.692;2024-01-10T12:46:11;7.25;7.25;3.00
12246;PMS7003;6186;52.022;4.692;2024-01-10T12:48:37;9.00;8.20;4.80
12246;PMS7003;6186;52.022;4.692;2024-01-10T12:51:12;8.20;7.40;3.00
12246;PMS7003;6186;52.022;4.692;2024-01-10T12:56:07;9.80;9.40;4.40
12246;PMS7003;6186;52.022;4.692;2024-01-10T12:58:34;8.40;7.40;3.60
12246;PMS7003;6186;52.022;4.692;2024-01-10T13:01:00;8.40;8.00;4.60
12246;PMS7003;6186;52.022;4.692;2024-01-10T13:03:26;8.00;7.00;3.00
12246;PMS7003;6186;52.022;4.692;2024-01-10T13:05:51;7.00;6.75;2.00
12246;PMS7003;6186;52.022;4.692;2024-01-10T13:08:17;11.00;9.75;5.00
12246;PMS7003;6186;52.022;4.692;2024-01-10T13:10:42;9.20;7.00;3.00
12246;PMS7003;6186;52.022;4.692;2024-01-10T13:13:08;8.25;7.75;4.50
12246;PMS7003;6186;52.022;4.692;2024-01-10T13:15:33;8.25;8.25;5.00
12246;PMS7003;6186;52.022;4.692;2024-01-10T13:17:58;9.75;8.00;3.00
12246;PMS7003;6186;52.022;4.692;2024-01-10T13:20:24;7.50;7.00;3.00
12246;PMS7003;6186;52.022;4.692;2024-01-10T13:22:49;11.00;9.00;5.00
12246;PMS7003;6186;52.022;4.692;2024-01-10T13:25:14;7.00;6.75;3.00
12246;PMS7003;6186;52.022;4.692;2024-01-10T13:27:40;6.50;6.00;3.00
12246;PMS7003;6186;52.022;4.692;2024-01-10T13:30:05;8.00;8.00;3.00
12246;PMS7003;6186;52.022;4.692;2024-01-10T13:32:31;9.00;8.00;4.00
12246;PMS7003;6186;52.022;4.692;2024-01-10T13:34:56;9.00;9.00;4.00
12246;PMS7003;6186;52.022;4.692;2024-01-10T13:37:21;7.75;6.00;2.00
12246;PMS7003;6186;52.022;4.692;2024-01-10T13:39:46;8.00;6.25;3.25
12246;PMS7003;6186;52.022;4.692;2024-01-10T13:42:12;9.25;8.25;4.25
12246;PMS7003;6186;52.022;4.692;2024-01-10T13:44:37;10.00;9.00;5.00
12246;PMS7003;6186;52.022;4.692;2024-01-10T13:47:02;10.00;9.00;4.75
12246;PMS7003;6186;52.022;4.692;2024-01-10T13:49:28;12.00;8.75;4.75
12246;PMS7003;6186;52.022;4.692;2024-01-10T13:51:53;9.00;8.00;5.00
12246;PMS7003;6186;52.022;4.692;2024-01-10T13:54:18;8.00;6.00;4.00
12246;PMS7003;6186;52.022;4.692;2024-01-10T13:56:43;8.50;8.00;4.00
12246;PMS7003;6186;52.022;4.692;2024-01-10T13:59:08;9.25;8.75;4.50
12246;PMS7003;6186;52.022;4.692;2024-01-10T14:01:34;9.33;9.33;5.00
12246;PMS7003;6186;52.022;4.692;2024-01-10T14:03:59;7.50;7.50;4.00
12246;PMS7003;6186;52.022;4.692;2024-01-10T14:06:24;8.67;8.00;5.00
12246;PMS7003;6186;52.022;4.692;2024-01-10T14:08:49;9.00;8.67;4.33
12246;PMS7003;6186;52.022;4.692;2024-01-10T14:11:14;10.33;9.00;4.00
12246;PMS7003;6186;52.022;4.692;2024-01-10T14:13:40;6.00;6.00;2.00
12246;PMS7003;6186;52.022;4.692;2024-01-10T14:16:05;8.33;8.00;4.00
12246;PMS7003;6186;52.022;4.692;2024-01-10T14:18:31;9.00;8.00;4.00
12246;PMS7003;6186;52.022;4.692;2024-01-10T14:20:56;9.00;8.33;4.00
12246;PMS7003;6186;52.022;4.692;2024-01-10T14:23:21;8.33;8.00;4.00
12246;PMS7003;6186;52.022;4.692;2024-01-10T14:25:46;11.00;10.33;4.67
12246;PMS7003;6186;52.022;4.692;2024-01-10T14:28:12;11.00;9.00;5.00
12246;PMS7003;6186;52.022;4.692;2024-01-10T14:30:37;8.33;8.00;4.00
12246;PMS7003;6186;52.022;4.692;2024-01-10T14:33:02;8.00;7.00;2.00
12246;PMS7003;6186;52.022;4.692;2024-01-10T14:35:27;8.00;7.00;2.67
12246;PMS7003;6186;52.022;4.692;2024-01-10T14:37:53;8.00;7.67;2.00
12246;PMS7003;6186;52.022;4.692;2024-01-10T14:40:18;8.00;7.67;4.00
12246;PMS7003;6186;52.022;4.692;2024-01-10T14:42:43;7.67;7.00;2.00
12246;PMS7003;6186;52.022;4.692;2024-01-10T14:45:08;10.00;7.00;4.00